sensor_id;sensor_type;location;lat;lon;timestamp;temperature;humidity
29453;DHT22;16424;50.956;5.320;2022-08-19T00:01:50;19.60;99.90
29453;DHT22;16424;50.956;5.320;2022-08-19T00:04:19;19.60;99.90
29453;DHT22;16424;50.956;5.320;2022-08-19T00:06:46;19.60;99.90
29453;DHT22;16424;50.956;5.320;2022-08-19T00:09:15;19.50;99.90
29453;DHT22;16424;50.956;5.320;2022-08-19T00:11:43;19.50;99.90
29453;DHT22;16424;50.956;5.320;2022-08-19T00:14:10;19.50;99.90
29453;DHT22;16424;50.956;5.320;2022-08-19T00:16:40;19.50;99.90
29453;DHT22;16424;50.956;5.320;2022-08-19T00:19:07;19.40;99.90
29453;DHT22;16424;50.956;5.320;2022-08-19T00:21:33;19.50;99.90
29453;DHT22;16424;50.956;5.320;2022-08-19T00:24:03;19.40;99.90
29453;DHT22;16424;50.956;5.320;2022-08-19T00:26:29;19.40;99.90
29453;DHT22;16424;50.956;5.320;2022-08-19T00:28:55;19.40;99.90
29453;DHT22;16424;50.956;5.320;2022-08-19T00:31:21;19.40;99.90
29453;DHT22;16424;50.956;5.320;2022-08-19T00:33:47;19.30;99.90
29453;DHT22;16424;50.956;5.320;2022-08-19T00:36:15;19.30;99.90
29453;DHT22;16424;50.956;5.320;2022-08-19T00:38:40;19.30;99.90
29453;DHT22;16424;50.956;5.320;2022-08-19T00:41:13;19.30;99.90
29453;DHT22;16424;50.956;5.320;2022-08-19T00:43:39;19.30;99.90
29453;DHT22;16424;50.956;5.320;2022-08-19T00:46:06;19.20;99.90
29453;DHT22;16424;50.956;5.320;2022-08-19T00:48:33;19.20;99.90
29453;DHT22;16424;50.956;5.320;2022-08-19T00:50:59;19.10;99.90
29453;DHT22;16424;50.956;5.320;2022-08-19T00:53:27;19.10;99.90
29453;DHT22;16424;50.956;5.320;2022-08-19T00:55:56;19.10;99.90
29453;DHT22;16424;50.956;5.320;2022-08-19T00:58:28;19.10;99.90
29453;DHT22;16424;50.956;5.320;2022-08-19T01:00:54;19.10;99.90
29453;DHT22;16424;50.956;5.320;2022-08-19T01:03:21;19.10;99.90
29453;DHT22;16424;50.956;5.320;2022-08-19T01:05:49;19.10;99.90
29453;DHT22;16424;50.956;5.320;2022-08-19T01:08:17;19.00;99.90
29453;DHT22;16424;50.956;5.320;2022-08-19T01:10:47;19.00;99.90
29453;DHT22;16424;50.956;5.320;2022-08-19T01:13:15;19.00;99.90
29453;DHT22;16424;50.956;5.320;2022-08-19T01:15:53;19.10;99.90
29453;DHT22;16424;50.956;5.320;2022-08-19T01:18:21;19.10;99.90
29453;DHT22;16424;50.956;5.320;2022-08-19T01:20:47;19.20;99.90
29453;DHT22;16424;50.956;5.320;2022-08-19T01:23:13;19.30;99.90
29453;DHT22;16424;50.956;5.320;2022-08-19T01:25:51;19.40;99.90
29453;DHT22;16424;50.956;5.320;2022-08-19T01:28:26;19.40;99.90
29453;DHT22;16424;50.956;5.320;2022-08-19T01:30:53;19.50;99.90
29453;DHT22;16424;50.956;5.320;2022-08-19T01:33:20;19.50;99.90
29453;DHT22;16424;50.956;5.320;2022-08-19T01:35:46;19.50;99.90
29453;DHT22;16424;50.956;5.320;2022-08-19T01:38:24;19.60;99.90
29453;DHT22;16424;50.956;5.320;2022-08-19T01:40:51;19.60;99.90
29453;DHT22;16424;50.956;5.320;2022-08-19T01:43:17;19.70;99.90
29453;DHT22;16424;50.956;5.320;2022-08-19T01:45:45;19.70;99.90
29453;DHT22;16424;50.956;5.320;2022-08-19T01:48:12;19.70;99.90
29453;DHT22;16424;50.956;5.320;2022-08-19T01:50:37;19.80;99.90
29453;DHT22;16424;50.956;5.320;2022-08-19T01:53:05;19.70;99.90
29453;DHT22;16424;50.956;5.320;2022-08-19T01:55:31;19.70;99.90
29453;DHT22;16424;50.956;5.320;2022-08-19T01:58:00;19.70;99.90
29453;DHT22;16424;50.956;5.320;2022-08-19T02:00:28;19.70;99.90
29453;DHT22;16424;50.956;5.320;2022-08-19T02:02:55;19.70;99.90
29453;DHT22;16424;50.956;5.320;2022-08-19T02:05:21;19.70;99.90
29453;DHT22;16424;50.956;5.320;2022-08-19T02:07:47;19.60;99.90
29453;DHT22;16424;50.956;5.320;2022-08-19T02:10:17;19.60;99.90
29453;DHT22;16424;50.956;5.320;2022-08-19T02:12:43;19.60;99.90
29453;DHT22;16424;50.956;5.320;2022-08-19T02:15:09;19.70;99.90
29453;DHT22;16424;50.956;5.320;2022-08-19T02:17:35;19.60;99.90
29453;DHT22;16424;50.956;5.320;2022-08-19T02:20:01;19.50;99.90
29453;DHT22;16424;50.956;5.320;2022-08-19T02:22:27;19.50;99.90
29453;DHT22;16424;50.956;5.320;2022-08-19T02:24:54;19.50;99.90
29453;DHT22;16424;50.956;5.320;2022-08-19T02:27:20;19.50;99.90
29453;DHT22;16424;50.956;5.320;2022-08-19T02:29:47;19.50;99.90
29453;DHT22;16424;50.956;5.320;2022-08-19T02:32:13;19.60;99.90
29453;DHT22;16424;50.956;5.320;2022-08-19T02:34:39;19.60;99.90
29453;DHT22;16424;50.956;5.320;2022-08-19T02:37:05;19.60;99.90
29453;DHT22;16424;50.956;5.320;2022-08-19T02:39:31;19.50;99.90
29453;DHT22;16424;50.956;5.320;2022-08-19T02:41:57;19.50;99.90
29453;DHT22;16424;50.956;5.320;2022-08-19T02:44:24;19.50;99.90
29453;DHT22;16424;50.956;5.320;2022-08-19T02:46:50;19.40;99.90
29453;DHT22;16424;50.956;5.320;2022-08-19T02:49:16;19.30;99.90
29453;DHT22;16424;50.956;5.320;2022-08-19T02:51:43;19.30;99.90
29453;DHT22;16424;50.956;5.320;2022-08-19T02:54:10;19.30;99.90
29453;DHT22;16424;50.956;5.320;2022-08-19T02:56:38;19.30;99.90
29453;DHT22;16424;50.956;5.320;2022-08-19T02:59:06;19.30;99.90
29453;DHT22;16424;50.956;5.320;2022-08-19T03:01:33;19.30;99.90
29453;DHT22;16424;50.956;5.320;2022-08-19T03:04:03;19.30;99.90
29453;DHT22;16424;50.956;5.320;2022-08-19T03:06:30;19.30;99.90
29453;DHT22;16424;50.956;5.320;2022-08-19T03:08:56;19.20;99.90
29453;DHT22;16424;50.956;5.320;2022-08-19T03:13:49;19.20;99.90
29453;DHT22;16424;50.956;5.320;2022-08-19T03:16:19;19.20;99.90
29453;DHT22;16424;50.956;5.320;2022-08-19T03:18:45;19.30;99.90
29453;DHT22;16424;50.956;5.320;2022-08-19T03:21:16;19.30;99.90
29453;DHT22;16424;50.956;5.320;2022-08-19T03:23:43;19.30;99.90
29453;DHT22;16424;50.956;5.320;2022-08-19T03:26:08;19.30;99.90
29453;DHT22;16424;50.956;5.320;2022-08-19T03:28:34;19.30;99.90
29453;DHT22;16424;50.956;5.320;2022-08-19T03:31:03;19.30;99.90
29453;DHT22;16424;50.956;5.320;2022-08-19T03:33:31;19.30;99.90
29453;DHT22;16424;50.956;5.320;2022-08-19T03:36:18;19.30;99.90
29453;DHT22;16424;50.956;5.320;2022-08-19T03:38:48;19.30;99.90
29453;DHT22;16424;50.956;5.320;2022-08-19T03:41:21;19.30;99.90
29453;DHT22;16424;50.956;5.320;2022-08-19T03:43:48;19.30;99.90
29453;DHT22;16424;50.956;5.320;2022-08-19T03:46:23;19.30;99.90
29453;DHT22;16424;50.956;5.320;2022-08-19T03:48:52;19.30;99.90
29453;DHT22;16424;50.956;5.320;2022-08-19T03:51:25;19.20;99.90
29453;DHT22;16424;50.956;5.320;2022-08-19T03:53:53;19.20;99.90
29453;DHT22;16424;50.956;5.320;2022-08-19T03:56:19;19.20;99.90
29453;DHT22;16424;50.956;5.320;2022-08-19T03:58:45;19.10;99.90
29453;DHT22;16424;50.956;5.320;2022-08-19T04:01:13;19.00;99.90
29453;DHT22;16424;50.956;5.320;2022-08-19T04:03:40;19.00;99.90
29453;DHT22;16424;50.956;5.320;2022-08-19T04:06:15;18.90;99.90
29453;DHT22;16424;50.956;5.320;2022-08-19T04:08:42;18.90;99.90
29453;DHT22;16424;50.956;5.320;2022-08-19T04:11:13;18.80;99.90
29453;DHT22;16424;50.956;5.320;2022-08-19T04:13:40;18.80;99.90
29453;DHT22;16424;50.956;5.320;2022-08-19T04:16:06;18.70;99.90
29453;DHT22;16424;50.956;5.320;2022-08-19T04:18:36;18.60;99.90
29453;DHT22;16424;50.956;5.320;2022-08-19T04:21:03;18.60;99.90
29453;DHT22;16424;50.956;5.320;2022-08-19T04:23:29;18.50;99.90
29453;DHT22;16424;50.956;5.320;2022-08-19T04:25:55;18.50;99.90
29453;DHT22;16424;50.956;5.320;2022-08-19T04:28:23;18.50;99.90
29453;DHT22;16424;50.956;5.320;2022-08-19T04:30:50;18.40;99.90
29453;DHT22;16424;50.956;5.320;2022-08-19T04:33:18;18.50;99.90
29453;DHT22;16424;50.956;5.320;2022-08-19T04:35:46;18.40;99.90
29453;DHT22;16424;50.956;5.320;2022-08-19T04:38:14;18.30;99.90
29453;DHT22;16424;50.956;5.320;2022-08-19T04:40:45;18.30;99.90
29453;DHT22;16424;50.956;5.320;2022-08-19T04:43:29;18.30;99.90
29453;DHT22;16424;50.956;5.320;2022-08-19T04:45:56;18.40;99.90
29453;DHT22;16424;50.956;5.320;2022-08-19T04:48:22;18.30;99.90
29453;DHT22;16424;50.956;5.320;2022-08-19T04:50:56;18.40;99.90
29453;DHT22;16424;50.956;5.320;2022-08-19T04:53:29;18.40;99.90
29453;DHT22;16424;50.956;5.320;2022-08-19T04:55:57;18.40;99.90
29453;DHT22;16424;50.956;5.320;2022-08-19T04:58:24;18.40;99.90
29453;DHT22;16424;50.956;5.320;2022-08-19T05:00:51;18.40;99.90
29453;DHT22;16424;50.956;5.320;2022-08-19T05:03:17;18.40;99.90
29453;DHT22;16424;50.956;5.320;2022-08-19T05:05:44;18.50;99.90
29453;DHT22;16424;50.956;5.320;2022-08-19T05:08:14;18.60;99.90
29453;DHT22;16424;50.956;5.320;2022-08-19T05:10:43;18.60;99.90
29453;DHT22;16424;50.956;5.320;2022-08-19T05:13:10;18.70;99.90
29453;DHT22;16424;50.956;5.320;2022-08-19T05:15:36;18.90;99.90
29453;DHT22;16424;50.956;5.320;2022-08-19T05:18:01;19.10;99.90
29453;DHT22;16424;50.956;5.320;2022-08-19T05:20:45;19.20;99.90
29453;DHT22;16424;50.956;5.320;2022-08-19T05:23:29;19.30;99.90
29453;DHT22;16424;50.956;5.320;2022-08-19T05:25:55;19.30;99.90
29453;DHT22;16424;50.956;5.320;2022-08-19T05:28:21;19.30;99.90
29453;DHT22;16424;50.956;5.320;2022-08-19T05:30:47;19.40;99.90
29453;DHT22;16424;50.956;5.320;2022-08-19T05:33:14;19.50;99.90
29453;DHT22;16424;50.956;5.320;2022-08-19T05:35:39;19.70;99.90
29453;DHT22;16424;50.956;5.320;2022-08-19T05:38:07;19.80;99.90
29453;DHT22;16424;50.956;5.320;2022-08-19T05:40:38;20.00;99.90
29453;DHT22;16424;50.956;5.320;2022-08-19T05:43:06;20.10;99.90
29453;DHT22;16424;50.956;5.320;2022-08-19T05:45:37;20.30;99.90
29453;DHT22;16424;50.956;5.320;2022-08-19T05:48:03;20.00;99.90
29453;DHT22;16424;50.956;5.320;2022-08-19T05:50:29;20.40;99.90
29453;DHT22;16424;50.956;5.320;2022-08-19T05:52:55;20.90;99.90
29453;DHT22;16424;50.956;5.320;2022-08-19T05:55:21;21.30;99.90
29453;DHT22;16424;50.956;5.320;2022-08-19T05:57:47;21.80;99.90
29453;DHT22;16424;50.956;5.320;2022-08-19T06:00:13;22.10;99.90
29453;DHT22;16424;50.956;5.320;2022-08-19T06:02:40;22.50;99.90
29453;DHT22;16424;50.956;5.320;2022-08-19T06:05:06;22.60;99.90
29453;DHT22;16424;50.956;5.320;2022-08-19T06:07:39;22.60;99.90
29453;DHT22;16424;50.956;5.320;2022-08-19T06:10:07;23.00;99.90
29453;DHT22;16424;50.956;5.320;2022-08-19T06:12:34;22.80;99.90
29453;DHT22;16424;50.956;5.320;2022-08-19T06:15:07;23.10;99.90
29453;DHT22;16424;50.956;5.320;2022-08-19T06:17:32;23.30;99.90
29453;DHT22;16424;50.956;5.320;2022-08-19T06:20:00;23.00;99.90
29453;DHT22;16424;50.956;5.320;2022-08-19T06:22:26;23.10;99.90
29453;DHT22;16424;50.956;5.320;2022-08-19T06:24:52;23.20;99.90
29453;DHT22;16424;50.956;5.320;2022-08-19T06:27:19;23.00;99.90
29453;DHT22;16424;50.956;5.320;2022-08-19T06:29:45;22.70;99.90
29453;DHT22;16424;50.956;5.320;2022-08-19T06:32:13;22.80;99.90
29453;DHT22;16424;50.956;5.320;2022-08-19T06:34:40;22.80;99.90
29453;DHT22;16424;50.956;5.320;2022-08-19T06:37:06;23.00;99.90
29453;DHT22;16424;50.956;5.320;2022-08-19T06:39:35;23.50;99.90
29453;DHT22;16424;50.956;5.320;2022-08-19T06:42:03;24.00;99.90
29453;DHT22;16424;50.956;5.320;2022-08-19T06:44:34;24.40;99.90
29453;DHT22;16424;50.956;5.320;2022-08-19T06:47:04;24.70;99.90
29453;DHT22;16424;50.956;5.320;2022-08-19T06:49:30;25.30;99.90
29453;DHT22;16424;50.956;5.320;2022-08-19T06:51:57;25.70;99.90
29453;DHT22;16424;50.956;5.320;2022-08-19T06:54:24;25.90;99.90
29453;DHT22;16424;50.956;5.320;2022-08-19T06:56:50;26.00;99.90
29453;DHT22;16424;50.956;5.320;2022-08-19T06:59:18;25.90;99.90
29453;DHT22;16424;50.956;5.320;2022-08-19T07:01:47;26.00;99.90
29453;DHT22;16424;50.956;5.320;2022-08-19T07:04:15;25.90;99.90
29453;DHT22;16424;50.956;5.320;2022-08-19T07:06:41;25.60;99.90
29453;DHT22;16424;50.956;5.320;2022-08-19T07:09:08;25.90;99.90
29453;DHT22;16424;50.956;5.320;2022-08-19T07:11:34;26.10;99.90
29453;DHT22;16424;50.956;5.320;2022-08-19T07:14:01;26.10;99.90
29453;DHT22;16424;50.956;5.320;2022-08-19T07:16:27;25.50;99.90
29453;DHT22;16424;50.956;5.320;2022-08-19T07:18:53;24.90;99.90
29453;DHT22;16424;50.956;5.320;2022-08-19T07:21:22;24.20;99.90
29453;DHT22;16424;50.956;5.320;2022-08-19T07:23:50;24.10;99.90
29453;DHT22;16424;50.956;5.320;2022-08-19T07:26:20;24.20;99.90
29453;DHT22;16424;50.956;5.320;2022-08-19T07:28:47;24.10;99.90
29453;DHT22;16424;50.956;5.320;2022-08-19T07:31:15;23.80;99.90
29453;DHT22;16424;50.956;5.320;2022-08-19T07:33:43;23.50;99.90
29453;DHT22;16424;50.956;5.320;2022-08-19T07:36:10;23.30;99.90
29453;DHT22;16424;50.956;5.320;2022-08-19T07:38:42;22.90;99.90
29453;DHT22;16424;50.956;5.320;2022-08-19T07:41:16;23.10;99.90
29453;DHT22;16424;50.956;5.320;2022-08-19T07:43:42;23.40;99.90
29453;DHT22;16424;50.956;5.320;2022-08-19T07:46:09;23.30;99.90
29453;DHT22;16424;50.956;5.320;2022-08-19T07:48:35;23.20;99.90
29453;DHT22;16424;50.956;5.320;2022-08-19T07:51:04;23.10;99.90
29453;DHT22;16424;50.956;5.320;2022-08-19T07:53:31;22.80;99.90
29453;DHT22;16424;50.956;5.320;2022-08-19T07:55:58;22.00;99.90
29453;DHT22;16424;50.956;5.320;2022-08-19T07:58:31;21.90;99.90
29453;DHT22;16424;50.956;5.320;2022-08-19T08:00:58;22.30;99.90
29453;DHT22;16424;50.956;5.320;2022-08-19T08:03:24;22.40;99.90
29453;DHT22;16424;50.956;5.320;2022-08-19T08:06:11;22.60;99.90
29453;DHT22;16424;50.956;5.320;2022-08-19T08:08:55;22.70;99.90
29453;DHT22;16424;50.956;5.320;2022-08-19T08:11:37;22.70;99.90
29453;DHT22;16424;50.956;5.320;2022-08-19T08:14:03;22.60;99.90
29453;DHT22;16424;50.956;5.320;2022-08-19T08:16:33;22.70;99.90
29453;DHT22;16424;50.956;5.320;2022-08-19T08:18:59;22.70;99.90
29453;DHT22;16424;50.956;5.320;2022-08-19T08:21:25;22.90;99.90
29453;DHT22;16424;50.956;5.320;2022-08-19T08:23:51;23.10;99.90
29453;DHT22;16424;50.956;5.320;2022-08-19T08:26:20;23.10;99.90
29453;DHT22;16424;50.956;5.320;2022-08-19T08:28:46;23.30;99.90
29453;DHT22;16424;50.956;5.320;2022-08-19T08:31:13;23.30;99.90
29453;DHT22;16424;50.956;5.320;2022-08-19T08:33:39;23.40;99.90
29453;DHT22;16424;50.956;5.320;2022-08-19T08:36:08;23.50;99.90
29453;DHT22;16424;50.956;5.320;2022-08-19T08:38:34;23.50;99.90
29453;DHT22;16424;50.956;5.320;2022-08-19T08:41:06;23.50;99.90
29453;DHT22;16424;50.956;5.320;2022-08-19T08:43:37;23.60;99.90
29453;DHT22;16424;50.956;5.320;2022-08-19T08:46:47;23.60;99.90
29453;DHT22;16424;50.956;5.320;2022-08-19T08:52:05;23.70;99.90
29453;DHT22;16424;50.956;5.320;2022-08-19T08:54:53;24.60;99.90
29453;DHT22;16424;50.956;5.320;2022-08-19T08:57:28;25.50;99.90
29453;DHT22;16424;50.956;5.320;2022-08-19T08:59:57;26.40;99.90
29453;DHT22;16424;50.956;5.320;2022-08-19T09:02:23;26.80;99.90
29453;DHT22;16424;50.956;5.320;2022-08-19T09:04:48;27.30;99.90
29453;DHT22;16424;50.956;5.320;2022-08-19T09:10:44;28.30;99.90
29453;DHT22;16424;50.956;5.320;2022-08-19T09:13:34;29.60;99.90
29453;DHT22;16424;50.956;5.320;2022-08-19T09:16:16;28.80;99.90
29453;DHT22;16424;50.956;5.320;2022-08-19T09:18:47;28.10;99.90
29453;DHT22;16424;50.956;5.320;2022-08-19T09:21:17;27.80;99.90
29453;DHT22;16424;50.956;5.320;2022-08-19T09:23:43;27.60;99.90
29453;DHT22;16424;50.956;5.320;2022-08-19T09:26:10;27.10;99.90
29453;DHT22;16424;50.956;5.320;2022-08-19T09:28:42;26.50;99.90
29453;DHT22;16424;50.956;5.320;2022-08-19T09:31:13;26.40;99.90
29453;DHT22;16424;50.956;5.320;2022-08-19T09:33:39;25.80;99.90
29453;DHT22;16424;50.956;5.320;2022-08-19T09:36:08;25.80;99.90
29453;DHT22;16424;50.956;5.320;2022-08-19T09:38:36;26.40;99.90
29453;DHT22;16424;50.956;5.320;2022-08-19T09:41:07;26.60;99.90
29453;DHT22;16424;50.956;5.320;2022-08-19T09:43:33;26.70;99.90
29453;DHT22;16424;50.956;5.320;2022-08-19T09:46:03;26.80;99.90
29453;DHT22;16424;50.956;5.320;2022-08-19T09:48:31;26.70;99.90
29453;DHT22;16424;50.956;5.320;2022-08-19T09:51:06;26.80;99.90
29453;DHT22;16424;50.956;5.320;2022-08-19T09:53:37;26.90;99.90
29453;DHT22;16424;50.956;5.320;2022-08-19T09:56:04;27.00;99.90
29453;DHT22;16424;50.956;5.320;2022-08-19T09:58:30;27.00;99.90
29453;DHT22;16424;50.956;5.320;2022-08-19T10:00:57;27.00;99.90
29453;DHT22;16424;50.956;5.320;2022-08-19T10:03:24;26.70;99.90
29453;DHT22;16424;50.956;5.320;2022-08-19T10:05:50;26.80;99.90
29453;DHT22;16424;50.956;5.320;2022-08-19T10:08:22;27.00;99.90
29453;DHT22;16424;50.956;5.320;2022-08-19T10:10:49;26.90;99.90
29453;DHT22;16424;50.956;5.320;2022-08-19T10:13:18;26.90;99.90
29453;DHT22;16424;50.956;5.320;2022-08-19T10:15:45;27.00;99.90
29453;DHT22;16424;50.956;5.320;2022-08-19T10:18:11;26.80;99.90
29453;DHT22;16424;50.956;5.320;2022-08-19T10:20:37;27.30;99.90
29453;DHT22;16424;50.956;5.320;2022-08-19T10:23:03;27.40;99.90
29453;DHT22;16424;50.956;5.320;2022-08-19T10:25:29;27.60;99.90
29453;DHT22;16424;50.956;5.320;2022-08-19T10:27:55;28.00;99.90
29453;DHT22;16424;50.956;5.320;2022-08-19T10:30:21;28.00;99.90
29453;DHT22;16424;50.956;5.320;2022-08-19T10:32:47;28.10;99.90
29453;DHT22;16424;50.956;5.320;2022-08-19T10:35:13;28.00;99.90
29453;DHT22;16424;50.956;5.320;2022-08-19T10:37:40;28.00;99.90
29453;DHT22;16424;50.956;5.320;2022-08-19T10:40:07;27.70;99.90
29453;DHT22;16424;50.956;5.320;2022-08-19T10:42:36;27.80;99.90
29453;DHT22;16424;50.956;5.320;2022-08-19T10:45:03;27.70;99.90
29453;DHT22;16424;50.956;5.320;2022-08-19T10:47:31;27.50;99.90
29453;DHT22;16424;50.956;5.320;2022-08-19T10:49:57;27.40;99.90
29453;DHT22;16424;50.956;5.320;2022-08-19T10:52:44;27.30;99.90
29453;DHT22;16424;50.956;5.320;2022-08-19T10:55:11;27.30;99.90
29453;DHT22;16424;50.956;5.320;2022-08-19T10:57:55;27.30;99.90
29453;DHT22;16424;50.956;5.320;2022-08-19T11:00:23;27.50;99.90
29453;DHT22;16424;50.956;5.320;2022-08-19T11:02:49;27.70;99.90
29453;DHT22;16424;50.956;5.320;2022-08-19T11:05:15;27.30;99.90
29453;DHT22;16424;50.956;5.320;2022-08-19T11:07:42;27.30;99.90
29453;DHT22;16424;50.956;5.320;2022-08-19T11:10:11;26.90;99.90
29453;DHT22;16424;50.956;5.320;2022-08-19T11:12:39;27.00;99.90
29453;DHT22;16424;50.956;5.320;2022-08-19T11:15:07;26.90;99.90
29453;DHT22;16424;50.956;5.320;2022-08-19T11:17:33;27.00;99.90
29453;DHT22;16424;50.956;5.320;2022-08-19T11:19:59;27.00;99.90
29453;DHT22;16424;50.956;5.320;2022-08-19T11:22:28;27.00;99.90
29453;DHT22;16424;50.956;5.320;2022-08-19T11:24:54;27.30;99.90
29453;DHT22;16424;50.956;5.320;2022-08-19T11:27:20;27.30;99.90
29453;DHT22;16424;50.956;5.320;2022-08-19T11:29:46;27.30;99.90
29453;DHT22;16424;50.956;5.320;2022-08-19T11:32:12;27.40;99.90
29453;DHT22;16424;50.956;5.320;2022-08-19T11:34:38;27.60;99.90
29453;DHT22;16424;50.956;5.320;2022-08-19T11:37:05;27.50;99.90
29453;DHT22;16424;50.956;5.320;2022-08-19T11:39:33;27.50;99.90
29453;DHT22;16424;50.956;5.320;2022-08-19T11:42:00;27.70;99.90
29453;DHT22;16424;50.956;5.320;2022-08-19T11:44:28;27.70;99.90
29453;DHT22;16424;50.956;5.320;2022-08-19T11:46:55;27.80;99.90
29453;DHT22;16424;50.956;5.320;2022-08-19T11:49:21;27.60;99.90
29453;DHT22;16424;50.956;5.320;2022-08-19T11:51:48;27.60;99.90
29453;DHT22;16424;50.956;5.320;2022-08-19T11:54:16;27.80;99.90
29453;DHT22;16424;50.956;5.320;2022-08-19T11:56:42;27.90;99.90
29453;DHT22;16424;50.956;5.320;2022-08-19T11:59:08;28.00;99.90
29453;DHT22;16424;50.956;5.320;2022-08-19T12:01:34;28.00;99.90
29453;DHT22;16424;50.956;5.320;2022-08-19T12:04:00;28.30;99.90
29453;DHT22;16424;50.956;5.320;2022-08-19T12:06:30;28.40;99.90
29453;DHT22;16424;50.956;5.320;2022-08-19T12:08:58;28.70;99.90
29453;DHT22;16424;50.956;5.320;2022-08-19T12:11:24;28.60;99.90
29453;DHT22;16424;50.956;5.320;2022-08-19T12:13:50;28.60;99.90
29453;DHT22;16424;50.956;5.320;2022-08-19T12:16:22;28.60;99.90
29453;DHT22;16424;50.956;5.320;2022-08-19T12:18:49;28.30;99.90
29453;DHT22;16424;50.956;5.320;2022-08-19T12:21:18;27.70;99.90
29453;DHT22;16424;50.956;5.320;2022-08-19T12:23:47;27.70;99.90
29453;DHT22;16424;50.956;5.320;2022-08-19T12:26:14;27.70;99.90
29453;DHT22;16424;50.956;5.320;2022-08-19T12:28:39;28.00;99.90
29453;DHT22;16424;50.956;5.320;2022-08-19T12:31:07;28.60;99.90
29453;DHT22;16424;50.956;5.320;2022-08-19T12:33:33;28.60;99.90
29453;DHT22;16424;50.956;5.320;2022-08-19T12:36:05;28.60;99.90
29453;DHT22;16424;50.956;5.320;2022-08-19T12:38:31;28.30;99.90
29453;DHT22;16424;50.956;5.320;2022-08-19T12:40:58;27.90;99.90
29453;DHT22;16424;50.956;5.320;2022-08-19T12:43:24;27.50;99.90
29453;DHT22;16424;50.956;5.320;2022-08-19T12:45:49;27.40;99.90
29453;DHT22;16424;50.956;5.320;2022-08-19T12:48:16;27.20;99.90
29453;DHT22;16424;50.956;5.320;2022-08-19T12:50:44;27.00;99.90
29453;DHT22;16424;50.956;5.320;2022-08-19T12:53:13;26.60;99.90
29453;DHT22;16424;50.956;5.320;2022-08-19T12:55:39;26.50;99.90
29453;DHT22;16424;50.956;5.320;2022-08-19T12:58:05;26.20;99.90
29453;DHT22;16424;50.956;5.320;2022-08-19T13:00:31;26.20;99.90
29453;DHT22;16424;50.956;5.320;2022-08-19T13:02:58;26.40;99.90
29453;DHT22;16424;50.956;5.320;2022-08-19T13:05:28;26.20;99.90
29453;DHT22;16424;50.956;5.320;2022-08-19T13:07:55;26.10;99.90
29453;DHT22;16424;50.956;5.320;2022-08-19T13:10:23;26.10;99.90
29453;DHT22;16424;50.956;5.320;2022-08-19T13:12:51;26.30;99.90
29453;DHT22;16424;50.956;5.320;2022-08-19T13:15:18;26.10;99.90
29453;DHT22;16424;50.956;5.320;2022-08-19T13:17:48;26.30;99.90
29453;DHT22;16424;50.956;5.320;2022-08-19T13:20:17;26.20;99.90
29453;DHT22;16424;50.956;5.320;2022-08-19T13:22:44;26.40;99.90
29453;DHT22;16424;50.956;5.320;2022-08-19T13:25:11;26.50;99.90
29453;DHT22;16424;50.956;5.320;2022-08-19T13:27:38;26.40;99.90
29453;DHT22;16424;50.956;5.320;2022-08-19T13:30:05;26.20;99.90
29453;DHT22;16424;50.956;5.320;2022-08-19T13:32:49;26.30;99.90
29453;DHT22;16424;50.956;5.320;2022-08-19T13:35:33;26.40;99.90
29453;DHT22;16424;50.956;5.320;2022-08-19T13:37:59;26.50;99.90
29453;DHT22;16424;50.956;5.320;2022-08-19T13:40:26;26.20;99.90
29453;DHT22;16424;50.956;5.320;2022-08-19T13:42:53;25.90;99.90
29453;DHT22;16424;50.956;5.320;2022-08-19T13:45:22;25.80;99.90
29453;DHT22;16424;50.956;5.320;2022-08-19T13:47:51;26.00;99.90
29453;DHT22;16424;50.956;5.320;2022-08-19T13:50:20;26.20;99.90
29453;DHT22;16424;50.956;5.320;2022-08-19T13:52:47;26.40;99.90
29453;DHT22;16424;50.956;5.320;2022-08-19T13:55:13;26.50;99.90
29453;DHT22;16424;50.956;5.320;2022-08-19T13:57:39;26.60;99.90
29453;DHT22;16424;50.956;5.320;2022-08-19T14:00:10;26.40;99.90
29453;DHT22;16424;50.956;5.320;2022-08-19T14:02:37;26.70;99.90
29453;DHT22;16424;50.956;5.320;2022-08-19T14:05:04;26.70;99.90
29453;DHT22;16424;50.956;5.320;2022-08-19T14:07:30;26.20;99.90
29453;DHT22;16424;50.956;5.320;2022-08-19T14:09:57;26.10;99.90
29453;DHT22;16424;50.956;5.320;2022-08-19T14:12:23;26.10;99.90
29453;DHT22;16424;50.956;5.320;2022-08-19T14:14:49;26.40;99.90
29453;DHT22;16424;50.956;5.320;2022-08-19T14:17:14;26.60;99.90
29453;DHT22;16424;50.956;5.320;2022-08-19T14:19:41;27.00;99.90
29453;DHT22;16424;50.956;5.320;2022-08-19T14:22:06;27.40;99.90
29453;DHT22;16424;50.956;5.320;2022-08-19T14:24:32;27.70;99.90
29453;DHT22;16424;50.956;5.320;2022-08-19T14:26:58;27.80;99.90
29453;DHT22;16424;50.956;5.320;2022-08-19T14:29:24;27.90;99.90
29453;DHT22;16424;50.956;5.320;2022-08-19T14:31:50;28.10;99.90
29453;DHT22;16424;50.956;5.320;2022-08-19T14:34:16;27.90;99.90
29453;DHT22;16424;50.956;5.320;2022-08-19T14:36:41;27.60;99.90
29453;DHT22;16424;50.956;5.320;2022-08-19T14:39:08;27.90;99.90
29453;DHT22;16424;50.956;5.320;2022-08-19T14:41:34;28.20;99.90
29453;DHT22;16424;50.956;5.320;2022-08-19T14:44:00;28.40;99.90
29453;DHT22;16424;50.956;5.320;2022-08-19T14:46:28;28.10;99.90
29453;DHT22;16424;50.956;5.320;2022-08-19T14:48:55;27.90;99.90
29453;DHT22;16424;50.956;5.320;2022-08-19T14:51:22;28.00;99.90
29453;DHT22;16424;50.956;5.320;2022-08-19T14:53:49;28.10;99.90
29453;DHT22;16424;50.956;5.320;2022-08-19T14:56:17;28.10;99.90
29453;DHT22;16424;50.956;5.320;2022-08-19T14:58:44;27.90;99.90
29453;DHT22;16424;50.956;5.320;2022-08-19T15:01:10;27.80;99.90
29453;DHT22;16424;50.956;5.320;2022-08-19T15:03:37;27.50;99.90
29453;DHT22;16424;50.956;5.320;2022-08-19T15:06:04;27.40;99.90
29453;DHT22;16424;50.956;5.320;2022-08-19T15:08:32;27.20;99.90
29453;DHT22;16424;50.956;5.320;2022-08-19T15:10:59;27.10;99.90
29453;DHT22;16424;50.956;5.320;2022-08-19T15:13:26;27.00;99.90
29453;DHT22;16424;50.956;5.320;2022-08-19T15:15:53;27.30;99.90
29453;DHT22;16424;50.956;5.320;2022-08-19T15:18:19;27.70;99.90
29453;DHT22;16424;50.956;5.320;2022-08-19T15:20:46;27.30;99.90
29453;DHT22;16424;50.956;5.320;2022-08-19T15:23:17;26.80;99.90
29453;DHT22;16424;50.956;5.320;2022-08-19T15:25:43;26.90;99.90
29453;DHT22;16424;50.956;5.320;2022-08-19T15:28:09;27.00;99.90
29453;DHT22;16424;50.956;5.320;2022-08-19T15:30:37;27.00;99.90
29453;DHT22;16424;50.956;5.320;2022-08-19T15:33:04;27.00;99.90
29453;DHT22;16424;50.956;5.320;2022-08-19T15:35:30;26.90;99.90
29453;DHT22;16424;50.956;5.320;2022-08-19T15:37:55;26.90;99.90
29453;DHT22;16424;50.956;5.320;2022-08-19T15:40:23;27.00;99.90
29453;DHT22;16424;50.956;5.320;2022-08-19T15:42:49;27.10;99.90
29453;DHT22;16424;50.956;5.320;2022-08-19T15:45:17;27.20;99.90